Time;durP1;ratioP1;P1;durP2;ratioP2;P2;SDS_P1;SDS_P2;PMS_P1;PMS_P2;Temp;Humidity;BMP_temperature;BMP_pressure;BME280_temperature;BME280_humidity;BME280_pressure;Samples;Min_cycle;Max_cycle;Signal;HPM_P1;HPM_P2
2021/04/22 00:00:41;;;;;;;2.92;2.45;;;16.70;50.40;;;;;;6224084;28;20041;-79
2021/04/22 00:03:42;;;;;;;6.05;2.17;;;16.60;50.50;;;;;;6207417;28;20064;-78
2021/04/22 00:06:43;;;;;;;2.70;1.90;;;16.60;50.60;;;;;;6225181;28;20113;-78
2021/04/22 00:09:46;;;;;;;2.95;1.90;;;16.60;50.70;;;;;;6200282;28;20030;-78
2021/04/22 00:12:47;;;;;;;3.75;1.40;;;16.60;50.60;;;;;;6200718;28;20041;-78
2021/04/22 00:15:50;;;;;;;2.83;1.77;;;16.60;50.60;;;;;;6208330;28;20030;-78
2021/04/22 00:18:50;;;;;;;3.05;1.85;;;16.60;50.60;;;;;;6201260;28;20034;-78
2021/04/22 00:21:51;;;;;;;2.38;1.67;;;16.60;50.60;;;;;;6201242;28;20045;-78
2021/04/22 00:24:52;;;;;;;3.63;1.70;;;16.60;50.60;;;;;;6206738;28;20030;-78
2021/04/22 00:27:53;;;;;;;4.03;1.70;;;16.60;50.60;;;;;;6201429;28;20023;-78
2021/04/22 00:30:54;;;;;;;4.70;1.63;;;16.50;50.60;;;;;;6184297;28;20078;-78
2021/04/22 00:33:55;;;;;;;2.00;1.70;;;16.60;50.60;;;;;;6213666;28;20038;-78
2021/04/22 00:36:56;;;;;;;2.80;1.90;;;16.60;50.50;;;;;;6223973;28;20097;-78
2021/04/22 00:39:57;;;;;;;4.07;1.80;;;16.60;50.50;;;;;;6223519;28;20026;-78
2021/04/22 00:43:03;;;;;;;2.20;1.73;;;16.60;50.60;;;;;;6221243;28;20095;-78
2021/04/22 00:46:03;;;;;;;3.08;1.90;;;16.60;50.60;;;;;;6210732;28;20026;-78
2021/04/22 00:49:05;;;;;;;2.22;1.80;;;16.60;50.50;;;;;;6211678;28;20084;-78
2021/04/22 00:52:06;;;;;;;2.10;1.67;;;16.60;50.60;;;;;;6229021;28;20046;-78
2021/04/22 00:55:08;;;;;;;5.13;1.73;;;16.60;50.60;;;;;;6227922;28;20029;-79
2021/04/22 00:58:10;;;;;;;3.00;1.77;;;16.60;50.60;;;;;;6222084;28;20041;-78
2021/04/22 01:01:11;;;;;;;2.13;1.65;;;16.60;50.60;;;;;;6227896;28;20045;-78
2021/04/22 01:04:12;;;;;;;2.10;1.70;;;16.50;50.60;;;;;;6227786;28;20049;-78
2021/04/22 01:07:15;;;;;;;2.72;2.08;;;16.50;50.60;;;;;;6229297;28;20053;-78
2021/04/22 01:10:17;;;;;;;4.05;2.08;;;16.50;50.70;;;;;;6189737;28;20038;-79
2021/04/22 01:13:19;;;;;;;2.22;1.75;;;16.50;50.70;;;;;;6188559;28;20385;-78
2021/04/22 01:16:20;;;;;;;2.10;1.80;;;16.50;50.80;;;;;;6197423;28;20034;-78
2021/04/22 01:19:23;;;;;;;4.03;2.10;;;16.40;51.50;;;;;;6227408;28;20041;-78
2021/04/22 01:22:24;;;;;;;3.30;2.00;;;16.40;51.00;;;;;;6190672;28;20441;-79
2021/04/22 01:25:32;;;;;;;4.20;2.00;;;16.30;51.00;;;;;;6217397;28;20029;-79
2021/04/22 01:28:33;;;;;;;4.18;2.38;;;16.30;51.10;;;;;;6227596;28;20045;-78
2021/04/22 01:31:34;;;;;;;3.25;2.00;;;16.30;51.80;;;;;;6228188;28;20357;-79
2021/04/22 01:34:35;;;;;;;3.17;1.67;;;16.30;51.20;;;;;;6210380;28;20487;-78
2021/04/22 01:37:37;;;;;;;4.20;2.15;;;16.30;51.30;;;;;;6210877;28;20364;-78
2021/04/22 01:40:38;;;;;;;3.03;1.55;;;16.30;51.40;;;;;;6210583;28;20099;-78
2021/04/22 01:43:39;;;;;;;5.82;1.83;;;16.20;51.40;;;;;;6210908;28;20473;-78
2021/04/22 01:46:40;;;;;;;3.05;2.05;;;16.20;51.50;;;;;;6227721;28;20034;-78
2021/04/22 01:49:41;;;;;;;3.95;1.80;;;16.20;51.70;;;;;;6205407;28;20069;-78
2021/04/22 01:52:42;;;;;;;2.42;1.85;;;16.20;51.80;;;;;;6187607;28;20088;-78
2021/04/22 01:55:47;;;;;;;3.25;1.90;;;16.10;51.90;;;;;;6178110;28;20026;-79
2021/04/22 01:58:47;;;;;;;3.15;1.88;;;16.10;52.00;;;;;;6210468;28;20058;-78
2021/04/22 02:01:48;;;;;;;3.67;1.77;;;16.10;52.10;;;;;;6227612;28;20022;-78
2021/04/22 02:04:49;;;;;;;3.30;1.98;;;16.00;52.20;;;;;;6214837;28;20408;-79
2021/04/22 02:07:51;;;;;;;3.72;2.00;;;15.90;52.20;;;;;;6210630;28;20476;-78
2021/04/22 02:10:52;;;;;;;5.35;2.03;;;15.90;52.30;;;;;;6215880;28;20041;-78
2021/04/22 02:13:53;;;;;;;4.60;2.00;;;15.90;52.30;;;;;;6231987;28;20042;-78
2021/04/22 02:16:54;;;;;;;3.83;1.73;;;15.80;52.70;;;;;;6197459;28;20100;-79
2021/04/22 02:19:56;;;;;;;2.30;1.75;;;15.80;52.80;;;;;;6205773;28;20038;-79
2021/04/22 02:22:57;;;;;;;6.53;2.33;;;15.70;53.00;;;;;;6186362;28;20471;-78
2021/04/22 02:25:58;;;;;;;3.53;2.20;;;15.60;53.20;;;;;;6205783;28;20083;-78
2021/04/22 02:28:59;;;;;;;5.13;1.58;;;15.60;53.30;;;;;;6201901;28;20045;-78
2021/04/22 02:32:02;;;;;;;3.92;2.08;;;15.60;53.40;;;;;;6189219;28;20126;-78
2021/04/22 02:35:04;;;;;;;3.10;2.08;;;15.50;53.40;;;;;;6173694;28;20045;-78
2021/04/22 02:38:09;;;;;;;4.82;2.35;;;15.50;53.50;;;;;;6207938;28;20045;-78
2021/04/22 02:41:11;;;;;;;3.85;2.05;;;15.50;53.60;;;;;;6170297;28;20560;-79
2021/04/22 02:44:12;;;;;;;3.05;2.05;;;15.40;53.60;;;;;;6184343;28;20039;-78
2021/04/22 02:47:13;;;;;;;5.68;1.88;;;15.40;53.60;;;;;;6186347;28;20469;-78
2021/04/22 02:50:18;;;;;;;2.70;2.10;;;15.40;53.70;;;;;;6182356;28;20026;-78
2021/04/22 02:53:21;;;;;;;2.90;2.00;;;15.30;53.70;;;;;;6186089;28;20042;-79
2021/04/22 02:56:22;;;;;;;3.55;2.25;;;15.30;53.80;;;;;;6185804;28;20030;-78
2021/04/22 02:59:22;;;;;;;3.45;1.83;;;15.30;54.00;;;;;;6185676;28;20108;-77
2021/04/22 03:02:24;;;;;;;2.90;1.92;;;15.20;53.90;;;;;;6201495;28;20064;-78
2021/04/22 03:05:25;;;;;;;5.47;2.65;;;15.20;54.00;;;;;;6225648;28;20453;-78
2021/04/22 03:08:26;;;;;;;3.70;1.77;;;15.20;54.20;;;;;;6189811;28;20035;-78
2021/04/22 03:11:27;;;;;;;3.13;2.08;;;15.20;54.30;;;;;;6185439;28;20061;-77
2021/04/22 03:14:28;;;;;;;2.65;1.60;;;15.10;54.20;;;;;;6185186;28;20445;-77
2021/04/22 03:17:29;;;;;;;3.22;2.00;;;15.10;54.20;;;;;;6191101;28;20106;-78
2021/04/22 03:20:30;;;;;;;4.55;2.00;;;15.10;54.10;;;;;;6184822;28;20034;-78
2021/04/22 03:23:31;;;;;;;3.55;2.45;;;15.10;54.20;;;;;;6185154;28;20096;-78
2021/04/22 03:26:32;;;;;;;4.75;2.75;;;15.10;54.90;;;;;;6185250;28;20105;-78
2021/04/22 03:29:33;;;;;;;4.90;3.30;;;15.00;54.30;;;;;;6202165;28;20511;-78
2021/04/22 03:32:34;;;;;;;5.50;3.50;;;15.00;54.50;;;;;;6168686;28;20093;-77
2021/04/22 03:35:35;;;;;;;6.68;3.70;;;15.00;54.70;;;;;;6168375;28;20037;-79
2021/04/22 03:38:36;;;;;;;6.00;3.53;;;14.90;54.60;;;;;;6201738;28;20069;-78
2021/04/22 03:41:37;;;;;;;7.40;4.05;;;14.90;54.70;;;;;;6194324;28;20538;-79
2021/04/22 03:44:37;;;;;;;5.57;3.70;;;14.90;54.80;;;;;;6191518;28;20048;-79
2021/04/22 03:47:39;;;;;;;4.07;3.10;;;14.90;54.90;;;;;;6178445;28;20037;-79
2021/04/22 03:50:40;;;;;;;6.50;3.60;;;14.90;55.10;;;;;;6184453;28;20054;-79
2021/04/22 03:53:41;;;;;;;5.53;3.42;;;14.90;55.20;;;;;;6184662;28;20449;-78
2021/04/22 03:56:43;;;;;;;6.80;4.07;;;14.80;55.50;;;;;;6185461;28;20030;-79
2021/04/22 03:59:43;;;;;;;14.13;8.55;;;14.80;55.70;;;;;;6225492;28;20472;-79
2021/04/22 04:02:45;;;;;;;14.88;10.52;;;14.70;55.80;;;;;;6208609;28;20076;-79
2021/04/22 04:05:46;;;;;;;17.33;9.85;;;14.60;56.00;;;;;;6225601;28;20172;-78
2021/04/22 04:08:47;;;;;;;11.45;4.95;;;14.60;56.10;;;;;;6207592;28;20033;-78
2021/04/22 04:11:48;;;;;;;7.90;4.95;;;14.50;56.20;;;;;;6207280;28;20088;-78
2021/04/22 04:14:50;;;;;;;10.00;6.03;;;14.50;56.40;;;;;;6191425;28;20128;-78
2021/04/22 04:17:51;;;;;;;9.75;5.47;;;14.40;56.50;;;;;;6214726;28;20045;-78
2021/04/22 04:20:52;;;;;;;5.60;3.65;;;14.40;56.50;;;;;;6208131;28;20041;-78
2021/04/22 04:23:53;;;;;;;6.10;3.65;;;14.40;56.60;;;;;;6212162;28;20471;-79
2021/04/22 04:26:54;;;;;;;9.05;4.20;;;14.40;56.60;;;;;;6196179;28;20026;-78
2021/04/22 04:30:10;;;;;;;5.63;3.33;;;14.40;56.60;;;;;;6219261;28;20088;-78
2021/04/22 04:33:10;;;;;;;5.28;3.88;;;14.30;56.60;;;;;;6211254;28;20030;-78
2021/04/22 04:36:11;;;;;;;4.70;3.20;;;14.30;56.90;;;;;;6211476;28;20077;-78
2021/04/22 04:39:14;;;;;;;4.85;3.20;;;14.20;57.00;;;;;;6205119;28;20034;-78
2021/04/22 04:42:15;;;;;;;5.07;3.78;;;14.20;57.30;;;;;;6212050;28;20037;-78
2021/04/22 04:45:19;;;;;;;6.63;3.35;;;14.10;57.50;;;;;;6195969;28;20081;-78
2021/04/22 04:48:20;;;;;;;8.77;3.25;;;14.10;57.60;;;;;;6205569;28;20035;-78
2021/04/22 04:51:21;;;;;;;6.15;3.42;;;14.00;57.50;;;;;;6172333;28;20042;-78
2021/04/22 04:54:21;;;;;;;4.75;3.10;;;14.00;57.60;;;;;;6204582;28;20109;-78
2021/04/22 04:57:22;;;;;;;9.23;3.72;;;13.90;57.70;;;;;;6205614;28;20078;-78
2021/04/22 05:00:24;;;;;;;6.35;3.38;;;13.90;57.70;;;;;;6224582;28;20504;-78
2021/04/22 05:03:25;;;;;;;5.57;3.33;;;14.00;57.70;;;;;;6227412;28;20061;-78
2021/04/22 05:06:27;;;;;;;6.75;3.45;;;14.00;57.70;;;;;;6227460;28;20026;-78
2021/04/22 05:09:28;;;;;;;5.43;3.85;;;14.00;57.70;;;;;;6227766;28;20524;-78
2021/04/22 05:12:28;;;;;;;6.93;3.67;;;14.00;57.60;;;;;;6228642;28;20026;-78
2021/04/22 05:15:29;;;;;;;8.13;3.97;;;14.00;57.50;;;;;;6227413;28;20061;-78
2021/04/22 05:18:30;;;;;;;10.35;3.65;;;14.00;57.40;;;;;;6207976;28;20096;-78
2021/04/22 05:21:31;;;;;;;5.60;3.25;;;14.00;57.40;;;;;;6204903;28;20034;-77
2021/04/22 05:24:32;;;;;;;5.75;3.30;;;14.10;57.50;;;;;;6209346;28;20154;-79
2021/04/22 05:27:33;;;;;;;6.95;3.20;;;14.10;57.50;;;;;;6210734;28;20033;-78
2021/04/22 05:30:34;;;;;;;10.63;4.00;;;14.10;57.50;;;;;;6226960;28;20131;-78
2021/04/22 05:33:35;;;;;;;6.82;3.80;;;14.00;57.50;;;;;;6204282;28;20400;-78
2021/04/22 05:36:36;;;;;;;6.97;3.75;;;14.10;58.10;;;;;;6204463;28;20100;-78
2021/04/22 05:39:38;;;;;;;7.68;3.47;;;14.10;57.50;;;;;;6187335;28;20026;-78
2021/04/22 05:42:39;;;;;;;5.65;3.58;;;14.10;57.50;;;;;;6203606;28;20129;-78
2021/04/22 05:45:39;;;;;;;5.53;3.45;;;14.10;57.60;;;;;;6204358;28;20030;-78
2021/04/22 05:48:40;;;;;;;4.28;3.00;;;14.10;57.50;;;;;;6223312;28;20052;-79
2021/04/22 05:51:42;;;;;;;7.07;4.03;;;14.10;57.50;;;;;;6228042;28;20025;-79
2021/04/22 05:54:43;;;;;;;7.25;3.65;;;14.10;57.50;;;;;;6212820;28;20026;-79
2021/04/22 05:57:47;;;;;;;12.80;4.32;;;14.20;57.50;;;;;;6204382;28;20068;-78
2021/04/22 06:00:48;;;;;;;6.97;4.18;;;14.20;57.40;;;;;;6204700;28;20033;-79
2021/04/22 06:03:49;;;;;;;5.93;3.50;;;14.20;57.40;;;;;;6193388;28;20037;-79
2021/04/22 06:06:50;;;;;;;5.85;3.67;;;14.20;57.30;;;;;;6211012;28;20034;-78
2021/04/22 06:09:51;;;;;;;7.13;4.22;;;14.20;57.20;;;;;;6203999;28;20415;-79
2021/04/22 06:12:52;;;;;;;11.25;3.95;;;14.30;57.40;;;;;;6210372;28;20033;-79
2021/04/22 06:15:53;;;;;;;8.73;4.00;;;14.30;57.20;;;;;;6226845;28;20069;-78
2021/04/22 06:18:54;;;;;;;6.82;4.20;;;14.30;57.10;;;;;;6220395;28;20026;-76
2021/04/22 06:21:54;;;;;;;6.55;3.95;;;14.40;57.10;;;;;;6230371;28;20026;-78
2021/04/22 06:24:55;;;;;;;5.85;3.78;;;14.50;57.00;;;;;;6216546;28;20128;-78
2021/04/22 06:27:58;;;;;;;7.90;4.35;;;14.50;56.90;;;;;;6199402;28;20090;-78
2021/04/22 06:31:00;;;;;;;8.25;4.53;;;14.50;56.80;;;;;;6202524;28;20047;-80
2021/04/22 06:34:01;;;;;;;12.32;3.95;;;14.60;56.80;;;;;;6206755;28;20182;-78
2021/04/22 06:37:04;;;;;;;10.93;4.20;;;14.60;56.70;;;;;;6220586;28;20033;-79
2021/04/22 06:40:13;;;;;;;4.93;3.78;;;14.70;56.70;;;;;;6226412;28;20405;-78
2021/04/22 06:43:16;;;;;;;8.50;3.85;;;14.70;56.50;;;;;;6208800;28;20108;-78
2021/04/22 06:46:17;;;;;;;6.32;3.38;;;14.80;56.40;;;;;;6186215;28;20081;-78
2021/04/22 06:49:18;;;;;;;7.03;3.15;;;14.90;56.00;;;;;;6208740;28;20361;-79
2021/04/22 06:52:19;;;;;;;5.03;2.90;;;14.90;55.80;;;;;;6222750;28;20030;-79
2021/04/22 06:55:22;;;;;;;5.28;3.20;;;15.00;55.40;;;;;;6185981;28;20062;-80
2021/04/22 06:58:23;;;;;;;4.28;2.97;;;15.10;55.20;;;;;;6185683;28;20038;-79
2021/04/22 07:01:24;;;;;;;5.00;3.15;;;15.20;54.90;;;;;;6218250;28;20029;-79
2021/04/22 07:04:25;;;;;;;6.40;3.60;;;15.30;54.60;;;;;;6224508;28;20044;-79
2021/04/22 07:07:26;;;;;;;6.72;2.88;;;15.30;54.10;;;;;;6206023;28;20042;-78
2021/04/22 07:10:27;;;;;;;7.80;3.70;;;15.40;53.70;;;;;;6185274;28;20030;-78
2021/04/22 07:13:28;;;;;;;5.57;2.88;;;15.50;53.50;;;;;;6200186;28;20125;-78
2021/04/22 07:16:29;;;;;;;4.57;2.72;;;15.60;53.10;;;;;;6225247;28;20022;-78
2021/04/22 07:19:30;;;;;;;5.18;2.40;;;15.70;52.90;;;;;;6208083;28;20060;-78
2021/04/22 07:22:30;;;;;;;4.38;3.08;;;15.80;52.50;;;;;;6224559;28;20041;-78
2021/04/22 07:25:34;;;;;;;5.32;3.10;;;15.80;51.90;;;;;;6191008;28;20057;-78
2021/04/22 07:28:35;;;;;;;4.13;2.45;;;15.90;51.80;;;;;;6201823;28;20480;-77
2021/04/22 07:31:38;;;;;;;6.40;3.53;;;15.90;51.70;;;;;;6176038;28;20117;-78
2021/04/22 07:34:39;;;;;;;5.60;3.58;;;16.10;51.70;;;;;;6225388;28;20112;-77
2021/04/22 07:37:40;;;;;;;5.72;2.90;;;16.20;51.60;;;;;;6208107;28;20040;-79
2021/04/22 07:40:42;;;;;;;4.70;3.22;;;16.30;51.30;;;;;;6208543;28;20361;-79
2021/04/22 07:43:43;;;;;;;6.35;3.17;;;16.50;51.10;;;;;;6208052;28;20030;-79
2021/04/22 07:46:44;;;;;;;6.18;3.25;;;16.60;50.80;;;;;;6191285;28;20033;-78
2021/04/22 07:49:46;;;;;;;7.82;3.10;;;16.70;50.50;;;;;;6191083;28;20069;-78
2021/04/22 07:52:48;;;;;;;7.05;3.40;;;16.80;50.10;;;;;;6191908;28;20026;-80
2021/04/22 07:55:50;;;;;;;6.70;3.17;;;16.80;50.00;;;;;;6177577;28;20045;-78
2021/04/22 07:58:50;;;;;;;7.68;3.45;;;16.90;49.70;;;;;;6168294;28;20048;-79
2021/04/22 08:01:51;;;;;;;13.02;5.28;;;16.90;49.40;;;;;;6181491;28;20034;-78
2021/04/22 08:04:52;;;;;;;11.07;3.78;;;17.00;49.40;;;;;;6224570;28;20093;-78
2021/04/22 08:07:53;;;;;;;12.88;3.35;;;17.00;49.20;;;;;;6207427;28;20515;-78
2021/04/22 08:10:55;;;;;;;9.68;3.97;;;17.10;49.10;;;;;;6172915;28;20030;-79
2021/04/22 08:13:57;;;;;;;6.28;3.20;;;17.30;48.90;;;;;;6192022;28;20060;-79
2021/04/22 08:16:58;;;;;;;9.68;3.20;;;17.40;48.60;;;;;;6189843;28;20115;-78
2021/04/22 08:19:59;;;;;;;5.40;3.10;;;17.60;48.10;;;;;;6176628;28;20038;-78
2021/04/22 08:23:03;;;;;;;6.18;3.60;;;17.80;47.80;;;;;;6216668;28;20053;-78
2021/04/22 08:26:07;;;;;;;8.43;3.38;;;17.90;47.20;;;;;;6206910;28;20468;-80
2021/04/22 08:29:08;;;;;;;11.55;2.95;;;18.00;46.90;;;;;;6199477;28;20468;-79
2021/04/22 08:32:09;;;;;;;5.75;3.22;;;18.10;46.60;;;;;;6184012;28;20251;-80
2021/04/22 08:35:11;;;;;;;9.88;5.28;;;18.20;46.50;;;;;;6183502;28;20088;-78
2021/04/22 08:38:13;;;;;;;4.13;2.92;;;18.40;46.30;;;;;;6200344;28;20042;-78
2021/04/22 08:41:14;;;;;;;8.20;4.00;;;18.70;46.20;;;;;;6201371;28;20042;-79
2021/04/22 08:44:15;;;;;;;3.95;2.70;;;18.70;45.60;;;;;;6205506;28;20381;-80
2021/04/22 08:47:16;;;;;;;5.57;3.10;;;18.90;45.40;;;;;;6207615;28;20041;-80
2021/04/22 08:50:26;;;;;;;5.22;2.60;;;19.00;45.10;;;;;;6223903;28;20033;-79
2021/04/22 08:53:33;;;;;;;6.05;3.00;;;19.10;44.70;;;;;;6212990;28;20112;-79
2021/04/22 08:56:37;;;;;;;5.18;2.42;;;19.20;44.20;;;;;;6207729;28;20038;-78
2021/04/22 08:59:38;;;;;;;4.10;2.65;;;19.30;44.20;;;;;;6207229;28;20029;-78
2021/04/22 09:02:39;;;;;;;5.60;3.03;;;19.40;44.20;;;;;;6224694;28;20025;-79
2021/04/22 09:05:40;;;;;;;12.80;2.58;;;19.50;43.70;;;;;;6219989;28;20034;-81
2021/04/22 09:08:45;;;;;;;3.55;2.50;;;19.60;43.50;;;;;;6210353;28;20038;-78
2021/04/22 09:11:47;;;;;;;5.20;3.05;;;19.60;43.20;;;;;;6211311;28;20026;-79
2021/04/22 09:15:12;;;;;;;5.63;2.65;;;19.60;42.80;;;;;;6216119;28;20041;-78
2021/04/22 09:18:16;;;;;;;4.05;2.90;;;19.70;42.90;;;;;;6181601;28;20038;-78
2021/04/22 09:21:23;;;;;;;8.95;3.33;;;19.80;42.40;;;;;;6161183;28;20053;-78
2021/04/22 09:24:26;;;;;;;4.07;2.70;;;19.80;42.20;;;;;;6181893;28;20054;-79
2021/04/22 09:27:32;;;;;;;5.88;2.97;;;19.90;42.70;;;;;;6180159;28;20462;-78
2021/04/22 09:30:45;;;;;;;4.72;2.67;;;19.90;41.80;;;;;;6184390;28;20046;-78
2021/04/22 09:33:46;;;;;;;14.93;6.95;;;20.00;41.80;;;;;;6202171;28;20359;-79
2021/04/22 09:36:49;;;;;;;5.25;3.10;;;20.10;41.60;;;;;;6172788;28;20038;-79
2021/04/22 09:39:51;;;;;;;4.60;3.00;;;20.20;41.30;;;;;;6164765;28;20122;-78
2021/04/22 09:42:54;;;;;;;10.35;5.47;;;20.30;40.60;;;;;;6202230;28;20104;-77
2021/04/22 09:45:55;;;;;;;9.32;4.65;;;20.30;40.60;;;;;;6173021;28;20038;-79
2021/04/22 09:48:58;;;;;;;5.63;2.88;;;20.30;40.40;;;;;;6169180;28;20034;-78
2021/04/22 09:52:07;;;;;;;3.63;2.22;;;20.40;40.30;;;;;;6202271;28;20235;-79
2021/04/22 09:59:31;;;;;;;4.53;2.10;;;20.40;39.80;;;;;;6204696;28;20019;-78
2021/04/22 10:02:42;;;;;;;2.88;1.90;;;20.40;39.70;;;;;;6204268;28;20052;-78
2021/04/22 10:05:42;;;;;;;5.75;2.10;;;20.40;39.70;;;;;;6189417;28;20118;-79
2021/04/22 10:08:44;;;;;;;2.72;1.95;;;20.50;39.50;;;;;;6227921;28;20026;-79
2021/04/22 10:11:51;;;;;;;6.47;2.88;;;20.60;39.50;;;;;;6226926;28;20488;-78
2021/04/22 10:14:53;;;;;;;6.10;2.60;;;20.70;39.20;;;;;;6223102;28;20030;-79
2021/04/22 10:18:02;;;;;;;5.35;2.20;;;20.80;38.80;;;;;;6213777;28;20022;-79
2021/04/22 10:21:03;;;;;;;3.88;2.47;;;20.80;38.80;;;;;;6230073;28;20368;-81
2021/04/22 10:24:05;;;;;;;3.42;2.17;;;20.90;38.80;;;;;;6231059;28;20026;-79
2021/04/22 10:27:06;;;;;;;2.50;2.00;;;20.90;38.70;;;;;;6229555;28;20036;-79
2021/04/22 10:30:11;;;;;;;2.50;2.15;;;20.90;38.50;;;;;;6229806;28;20050;-79
2021/04/22 10:33:13;;;;;;;2.50;2.05;;;20.90;38.30;;;;;;6205240;28;20030;-78
2021/04/22 10:36:21;;;;;;;3.05;2.15;;;21.00;38.10;;;;;;6209619;28;20442;-80
2021/04/22 10:39:22;;;;;;;2.22;1.90;;;21.00;37.90;;;;;;6188895;28;20037;-79
2021/04/22 10:42:25;;;;;;;3.65;2.30;;;21.00;38.10;;;;;;6192750;28;20033;-79
2021/04/22 10:45:28;;;;;;;4.47;2.78;;;21.00;38.00;;;;;;6185999;28;20045;-80
2021/04/22 10:48:29;;;;;;;3.65;2.42;;;21.20;37.70;;;;;;6216958;28;20060;-80
2021/04/22 10:51:30;;;;;;;3.30;2.20;;;21.60;37.00;;;;;;6208814;28;20069;-78
2021/04/22 10:54:36;;;;;;;4.00;2.20;;;22.20;36.50;;;;;;6209432;28;20038;-77
2021/04/22 10:57:37;;;;;;;3.15;2.30;;;22.80;35.30;;;;;;6209481;28;20042;-78
2021/04/22 11:00:44;;;;;;;6.40;2.40;;;23.50;34.40;;;;;;6199735;28;20092;-79
2021/04/22 11:03:47;;;;;;;2.50;2.07;;;24.00;33.30;;;;;;6198619;28;20474;-79
2021/04/22 11:06:48;;;;;;;4.18;2.50;;;24.50;32.50;;;;;;6226090;28;20452;-79
2021/04/22 11:09:51;;;;;;;3.30;2.10;;;24.90;32.20;;;;;;6208878;28;20080;-79
2021/04/22 11:12:54;;;;;;;4.72;2.40;;;25.20;31.80;;;;;;6192691;28;20046;-79
2021/04/22 11:15:54;;;;;;;4.65;2.97;;;25.60;31.40;;;;;;6184861;28;20045;-79
2021/04/22 11:18:56;;;;;;;5.18;2.80;;;26.00;30.80;;;;;;6187811;28;20030;-79
2021/04/22 11:22:07;;;;;;;4.18;2.60;;;26.30;30.50;;;;;;6225259;28;20058;-79
2021/04/22 11:25:09;;;;;;;3.80;2.47;;;26.70;30.20;;;;;;6191937;28;20124;-79
2021/04/22 11:28:10;;;;;;;3.25;2.53;;;26.90;29.80;;;;;;6208862;28;20413;-79
2021/04/22 11:31:16;;;;;;;7.30;2.53;;;27.10;29.60;;;;;;6208606;28;20037;-79
2021/04/22 11:34:34;;;;;;;7.30;3.13;;;27.10;29.40;;;;;;6202023;28;20372;-79
2021/04/22 11:37:48;;;;;;;4.20;2.92;;;27.10;29.10;;;;;;6208328;28;20065;-78
2021/04/22 11:40:54;;;;;;;6.82;2.78;;;27.00;29.30;;;;;;6191974;28;20122;-79
2021/04/22 11:44:06;;;;;;;3.97;2.92;;;27.10;29.90;;;;;;6199402;28;20058;-78
2021/04/22 11:47:28;;;;;;;5.22;3.10;;;27.20;29.50;;;;;;6171599;28;20109;-79
2021/04/22 11:50:41;;;;;;;4.53;2.90;;;27.40;29.30;;;;;;6189683;28;20034;-80
2021/04/22 11:53:47;;;;;;;5.18;2.95;;;27.70;28.90;;;;;;6207546;28;20444;-79
2021/04/22 11:57:07;;;;;;;4.72;3.00;;;27.80;28.30;;;;;;6206627;28;20083;-79
2021/04/22 12:00:08;;;;;;;5.72;3.35;;;27.70;28.30;;;;;;6167458;28;20492;-78
2021/04/22 12:03:29;;;;;;;4.15;3.38;;;27.80;28.00;;;;;;6201019;28;20038;-79
2021/04/22 12:06:31;;;;;;;;;;;27.90;27.80;;;;;;6187325;28;20124;-79
2021/04/22 12:09:33;;;;;;;8.40;3.08;;;28.10;27.70;;;;;;6224479;28;19913;-79
2021/04/22 12:12:34;;;;;;;3.70;2.33;;;28.00;27.40;;;;;;6213098;28;20033;-79
2021/04/22 12:15:38;;;;;;;3.38;2.25;;;28.00;27.40;;;;;;6178388;28;20026;-79
2021/04/22 12:18:42;;;;;;;3.17;2.30;;;28.30;26.90;;;;;;6200096;28;20030;-79
2021/04/22 12:21:44;;;;;;;5.88;2.92;;;28.70;26.40;;;;;;6206056;28;20030;-81
2021/04/22 12:24:50;;;;;;;8.45;2.80;;;29.10;26.30;;;;;;6191305;28;20037;-79
2021/04/22 12:27:57;;;;;;;3.45;2.42;;;29.70;25.80;;;;;;6223977;28;20489;-79
2021/04/22 12:31:08;;;;;;;2.65;2.20;;;30.20;25.10;;;;;;6224125;28;20052;-80
2021/04/22 12:34:15;;;;;;;3.45;2.28;;;30.50;24.30;;;;;;6200859;28;20033;-79
2021/04/22 12:37:17;;;;;;;3.03;2.30;;;30.60;23.90;;;;;;6190731;28;20030;-79
2021/04/22 12:40:19;;;;;;;3.25;2.40;;;31.00;23.90;;;;;;6186738;28;20042;-79
2021/04/22 12:43:20;;;;;;;3.25;2.30;;;31.20;23.30;;;;;;6198729;28;20049;-79
2021/04/22 12:46:22;;;;;;;15.50;2.42;;;31.40;23.00;;;;;;6188552;28;20026;-79
2021/04/22 12:49:23;;;;;;;4.53;2.10;;;31.60;22.80;;;;;;6188547;28;20022;-81
2021/04/22 12:52:24;;;;;;;5.53;2.22;;;32.10;22.40;;;;;;6188573;28;20477;-81
2021/04/22 12:55:26;;;;;;;5.78;2.65;;;32.50;22.00;;;;;;6172582;28;20035;-81
2021/04/22 12:58:33;;;;;;;6.13;2.53;;;33.00;21.60;;;;;;6188252;28;20355;-80
2021/04/22 13:06:05;;;;;;;5.75;1.75;;;34.10;20.70;;;;;;6227213;28;20034;-81
2021/04/22 13:09:07;;;;;;;5.93;1.88;;;34.70;20.20;;;;;;6171804;28;20153;-80
2021/04/22 13:12:12;;;;;;;2.30;1.70;;;35.30;19.90;;;;;;6211252;28;20019;-80
2021/04/22 13:15:17;;;;;;;4.60;1.80;;;36.00;19.50;;;;;;6171793;28;20041;-81
2021/04/22 13:18:23;;;;;;;4.15;1.80;;;36.50;18.70;;;;;;6212582;28;20108;-80
2021/04/22 13:21:28;;;;;;;2.20;1.70;;;36.80;18.50;;;;;;6202260;28;20355;-79
2021/04/22 13:24:32;;;;;;;3.20;1.90;;;37.10;18.00;;;;;;6171623;28;20388;-79
2021/04/22 13:27:33;;;;;;;5.78;2.28;;;37.20;17.80;;;;;;6188122;28;20039;-79
2021/04/22 13:30:36;;;;;;;2.25;1.52;;;37.60;17.80;;;;;;6216021;28;20053;-80
2021/04/22 13:33:37;;;;;;;6.13;1.80;;;38.00;17.40;;;;;;6228309;28;20042;-79
2021/04/22 13:36:42;;;;;;;3.38;1.65;;;38.00;17.20;;;;;;6227217;28;20060;-80
2021/04/22 13:39:46;;;;;;;2.33;1.50;;;37.80;17.30;;;;;;6193757;28;20453;-80
2021/04/22 13:42:48;;;;;;;2.85;1.50;;;38.00;17.40;;;;;;6204210;28;20026;-80
2021/04/22 13:45:49;;;;;;;4.03;1.65;;;38.20;17.00;;;;;;6187824;28;20085;-79
2021/04/22 13:49:03;;;;;;;4.30;1.58;;;38.20;17.10;;;;;;6199502;28;20030;-80
2021/04/22 13:52:16;;;;;;;5.03;1.92;;;38.40;17.20;;;;;;6228047;28;20382;-79
2021/04/22 13:55:17;;;;;;;1.80;1.70;;;38.60;16.80;;;;;;6229593;28;20030;-80
2021/04/22 13:58:32;;;;;;;4.47;1.85;;;38.80;16.60;;;;;;6211309;28;20111;-80
2021/04/22 14:01:37;;;;;;;4.40;1.80;;;39.20;16.30;;;;;;6220035;28;20023;-80
2021/04/22 14:04:38;;;;;;;5.88;1.88;;;39.20;16.10;;;;;;6187928;28;20100;-80
2021/04/22 14:07:40;;;;;;;3.00;1.77;;;39.10;16.10;;;;;;6208847;28;20167;-80
2021/04/22 14:10:41;;;;;;;4.53;1.88;;;39.10;15.80;;;;;;6205680;28;20057;-80
2021/04/22 14:13:43;;;;;;;3.40;1.67;;;38.90;15.90;;;;;;6205751;28;20030;-81
2021/04/22 14:16:47;;;;;;;2.70;2.20;;;38.90;15.80;;;;;;6211172;28;20030;-79
2021/04/22 14:19:48;;;;;;;3.97;2.25;;;38.60;15.80;;;;;;6219704;28;20038;-79
2021/04/22 14:22:49;;;;;;;2.58;2.13;;;37.80;16.00;;;;;;6220045;28;20346;-79
2021/04/22 14:25:50;;;;;;;2.33;1.98;;;36.20;16.90;;;;;;6211485;28;20067;-80
2021/04/22 14:28:51;;;;;;;2.65;1.80;;;34.90;17.90;;;;;;6187032;28;20054;-80
2021/04/22 14:31:54;;;;;;;3.88;1.85;;;33.30;18.90;;;;;;6187302;28;20033;-81
2021/04/22 14:34:58;;;;;;;3.75;1.52;;;31.90;20.10;;;;;;6187127;28;20036;-80
2021/04/22 14:38:04;;;;;;;3.25;1.95;;;30.70;21.00;;;;;;6170284;28;20034;-79
2021/04/22 14:41:05;;;;;;;5.30;1.95;;;29.70;22.00;;;;;;6201927;28;20057;-79
2021/04/22 14:44:07;;;;;;;2.53;1.75;;;28.80;22.80;;;;;;6212151;28;20030;-78
2021/04/22 14:47:09;;;;;;;3.00;1.65;;;28.10;23.50;;;;;;6208957;28;20026;-79
2021/04/22 14:50:19;;;;;;;3.80;2.30;;;27.50;24.10;;;;;;6208514;28;20041;-80
2021/04/22 14:53:21;;;;;;;3.72;2.58;;;27.00;24.60;;;;;;6169876;28;20030;-79
2021/04/22 14:56:22;;;;;;;7.80;2.45;;;26.70;24.90;;;;;;6169901;28;20026;-80
2021/04/22 14:59:23;;;;;;;2.75;2.10;;;26.40;25.20;;;;;;6186276;28;20441;-80
2021/04/22 15:02:25;;;;;;;2.17;1.63;;;26.20;25.40;;;;;;6188576;28;20030;-80
2021/04/22 15:05:29;;;;;;;1.90;1.55;;;26.10;25.50;;;;;;6204151;28;20037;-79
2021/04/22 15:09:05;;;;;;;2.17;1.55;;;25.90;25.70;;;;;;6225905;28;20030;-79
2021/04/22 15:12:35;;;;;;;2.70;1.90;;;25.80;26.10;;;;;;6208757;28;20065;-80
2021/04/22 15:16:00;;;;;;;2.03;1.70;;;25.50;26.50;;;;;;6209061;28;20046;-79
2021/04/22 15:19:07;;;;;;;3.15;2.10;;;25.40;26.50;;;;;;6181967;28;20117;-79
2021/04/22 15:22:13;;;;;;;3.85;2.08;;;25.40;26.50;;;;;;6190147;28;20093;-79
2021/04/22 15:25:22;;;;;;;2.40;1.50;;;25.50;26.50;;;;;;6169596;28;20457;-79
2021/04/22 15:28:25;;;;;;;2.63;1.75;;;25.60;26.30;;;;;;6168737;28;20038;-79
2021/04/22 15:31:29;;;;;;;2.30;1.52;;;25.80;26.10;;;;;;6215903;28;20056;-79
2021/04/22 15:34:29;;;;;;;6.57;2.00;;;25.90;26.00;;;;;;6191811;28;20430;-79
2021/04/22 15:37:30;;;;;;;1.75;1.60;;;25.90;25.80;;;;;;6224926;28;20148;-80
2021/04/22 15:40:33;;;;;;;5.68;1.85;;;26.10;25.60;;;;;;6192503;28;20029;-79
2021/04/22 15:43:34;;;;;;;1.75;1.25;;;26.30;25.40;;;;;;6191868;28;20380;-79
2021/04/22 15:46:36;;;;;;;3.28;1.83;;;26.50;25.00;;;;;;6208201;28;20062;-79
2021/04/22 15:49:36;;;;;;;1.65;1.45;;;26.90;24.70;;;;;;6208297;28;20100;-80
2021/04/22 15:52:38;;;;;;;7.50;1.48;;;28.40;23.80;;;;;;6208167;28;20033;-80
2021/04/22 15:55:40;;;;;;;2.25;1.63;;;30.20;22.00;;;;;;6208343;28;20476;-79
2021/04/22 15:58:41;;;;;;;2.30;1.75;;;31.90;20.70;;;;;;6200275;28;20040;-80